Terminal Aerodrome Forecast
Issued by NWS Jackson, MS

Home | Current Version | Previous Version | Text Only | Print | Product List | Glossary On
Versions: 1 2 3 4 5 6 7 8 9 10 11 12 13 14 15 16
970
FTUS44 KJAN 210353 AAA
TAFHBG
TAF AMD
KHBG 210353Z 2104/2124 18006KT 5SM BR OVC005
     FM210700 17006KT 6SM BR VCTS BKN009 OVC025CB
     FM210830 22015G35KT 1SM +TSRA BR BKN004CB OVC025
     FM211100 14005KT 3SM -TSRA BR BKN008CB OVC050
     FM211500 18006KT 3SM BR BKN015 BKN025
     FM211900 19007KT P6SM SCT025=

USA.gov is the U.S. government's official web portal to all federal, state and local government web resources and services.